Time,TemperatureF,DewpointF,PressureIn,WindDirection,WindDirectionDegrees,WindSpeedMPH,WindSpeedGustMPH,Humidity,HourlyPrecipIn,Conditions,Clouds,dailyrainin,SoftwareType,DateUTC
2013-05-15 00:00:00,43.4,40.1,29.97,WSW,248,0.4,0.4,88,0.00,,,0.02,WUHU216HW,2013-05-15 07:00:00,
2013-05-15 00:05:00,43.4,40.1,29.97,WSW,248,0.4,0.4,88,0.00,,,0.02,WUHU216HW,2013-05-15 07:05:00,
2013-05-15 00:30:00,42.5,38.9,29.97,SE,135,0.0,0.0,87,0.00,,,0.00,WUHU216HW,2013-05-15 07:30:00,
2013-05-15 00:35:00,42.5,38.9,29.97,SE,135,0.0,0.0,87,0.00,,,0.00,WUHU216HW,2013-05-15 07:35:00,
2013-05-15 00:59:00,41.6,38.0,29.96,SE,135,0.0,0.0,87,0.00,,,0.00,WUHU216HW,2013-05-15 07:59:00,
2013-05-15 01:00:00,41.6,38.0,29.96,SE,135,0.0,0.0,87,0.00,,,0.00,WUHU216HW,2013-05-15 08:00:00,
2013-05-15 01:05:00,41.6,38.0,29.96,SE,135,0.0,0.0,87,0.00,,,0.00,WUHU216HW,2013-05-15 08:05:00,
2013-05-15 01:30:00,40.9,37.5,29.96,SSE,158,0.0,0.0,88,0.00,,,0.00,WUHU216HW,2013-05-15 08:30:00,
2013-05-15 01:35:00,40.9,37.5,29.96,SSE,158,0.0,0.0,88,0.00,,,0.00,WUHU216HW,2013-05-15 08:35:00,
2013-05-15 01:59:00,40.5,37.5,29.95,SSE,158,0.0,0.0,89,0.00,,,0.00,WUHU216HW,2013-05-15 08:59:00,
2013-05-15 02:00:00,40.5,37.5,29.95,SSE,158,0.0,0.0,89,0.00,,,0.00,WUHU216HW,2013-05-15 09:00:00,
2013-05-15 02:05:00,40.5,37.5,29.95,SSE,158,0.0,0.0,89,0.00,,,0.00,WUHU216HW,2013-05-15 09:05:00,
2013-05-15 02:30:00,40.1,37.2,29.95,South,180,0.0,0.0,89,0.00,,,0.00,WUHU216HW,2013-05-15 09:30:00,
2013-05-15 02:35:00,40.1,37.2,29.95,South,180,0.0,0.0,89,0.00,,,0.00,WUHU216HW,2013-05-15 09:35:00,
2013-05-15 02:59:00,39.2,36.5,29.95,South,180,0.0,0.0,90,0.00,,,0.00,WUHU216HW,2013-05-15 09:59:00,
2013-05-15 03:00:00,39.2,36.5,29.95,South,180,0.0,0.0,90,0.00,,,0.00,WUHU216HW,2013-05-15 10:00:00,
2013-05-15 03:05:00,39.2,36.5,29.95,South,180,0.0,0.0,90,0.00,,,0.00,WUHU216HW,2013-05-15 10:05:00,
2013-05-15 08:00:00,47.2,45.8,29.93,NE,45,0.4,0.4,95,0.00,,,0.00,WUHU216HW,2013-05-15 15:00:00,
2013-05-15 08:05:00,47.2,45.8,29.93,NE,45,0.4,0.4,95,0.00,,,0.00,WUHU216HW,2013-05-15 15:05:00,
2013-05-15 08:30:00,53.8,50.3,29.92,East,90,0.2,0.2,88,0.00,,,0.00,WUHU216HW,2013-05-15 15:30:00,
2013-05-15 08:35:00,53.8,50.3,29.92,East,90,0.2,0.2,88,0.00,,,0.00,WUHU216HW,2013-05-15 15:35:00,
2013-05-15 09:00:00,58.0,49.7,29.92,ESE,113,1.1,1.1,74,0.00,,,0.00,WUHU216HW,2013-05-15 16:00:00,
2013-05-15 09:05:00,58.0,49.7,29.92,ESE,113,1.1,1.1,74,0.00,,,0.00,WUHU216HW,2013-05-15 16:05:00,
2013-05-15 09:30:00,59.9,47.4,29.91,NE,45,0.9,0.9,63,0.00,,,0.00,WUHU216HW,2013-05-15 16:30:00,
2013-05-15 09:35:00,59.9,47.4,29.91,NE,45,0.9,0.9,63,0.00,,,0.00,WUHU216HW,2013-05-15 16:35:00,
2013-05-15 10:00:00,62.6,46.2,29.90,NE,45,1.1,1.1,55,0.00,,,0.00,WUHU216HW,2013-05-15 17:00:00,
2013-05-15 10:05:00,62.6,46.2,29.90,NE,45,1.1,1.1,55,0.00,,,0.00,WUHU216HW,2013-05-15 17:05:00,
2013-05-15 10:30:00,64.8,45.7,29.90,East,90,1.6,1.6,50,0.00,,,0.00,WUHU216HW,2013-05-15 17:30:00,
2013-05-15 10:35:00,64.8,45.7,29.90,East,90,1.6,1.6,50,0.00,,,0.00,WUHU216HW,2013-05-15 17:35:00,
2013-05-15 11:00:00,63.4,44.9,29.89,SE,135,2.5,2.5,51,0.00,,,0.00,WUHU216HW,2013-05-15 18:00:00,
2013-05-15 11:05:00,63.4,44.9,29.89,SE,135,2.5,2.5,51,0.00,,,0.00,WUHU216HW,2013-05-15 18:05:00,
2013-05-15 11:30:00,64.3,44.7,29.89,SSE,158,1.1,1.1,49,0.00,,,0.00,WUHU216HW,2013-05-15 18:30:00,
2013-05-15 11:35:00,64.3,44.7,29.89,SSE,158,1.1,1.1,49,0.00,,,0.00,WUHU216HW,2013-05-15 18:35:00,
2013-05-15 12:00:00,66.8,48.2,29.89,South,180,3.4,3.4,51,0.00,,,0.00,WUHU216HW,2013-05-15 19:00:00,
2013-05-15 12:05:00,66.8,48.2,29.89,South,180,3.4,3.4,51,0.00,,,0.00,WUHU216HW,2013-05-15 19:05:00,
2013-05-15 12:30:00,68.9,47.8,29.88,North,0,2.2,2.2,47,0.00,,,0.00,WUHU216HW,2013-05-15 19:30:00,
2013-05-15 12:35:00,68.9,47.8,29.88,North,0,2.2,2.2,47,0.00,,,0.00,WUHU216HW,2013-05-15 19:35:00,
2013-05-15 13:00:00,68.4,49.2,29.88,WSW,248,2.5,2.5,50,0.00,,,0.00,WUHU216HW,2013-05-15 20:00:00,
2013-05-15 13:05:00,68.4,49.2,29.88,WSW,248,2.5,2.5,50,0.00,,,0.00,WUHU216HW,2013-05-15 20:05:00,
2013-05-15 13:30:00,64.8,46.2,29.88,SW,225,0.9,0.9,51,0.00,,,0.00,WUHU216HW,2013-05-15 20:30:00,
2013-05-15 13:35:00,64.8,46.2,29.88,SW,225,0.9,0.9,51,0.00,,,0.00,WUHU216HW,2013-05-15 20:35:00,
2013-05-15 14:00:00,63.0,44.6,29.88,WNW,293,2.9,2.9,51,0.00,,,0.00,WUHU216HW,2013-05-15 21:00:00,
2013-05-15 14:05:00,63.0,44.6,29.88,WNW,293,2.9,2.9,51,0.00,,,0.00,WUHU216HW,2013-05-15 21:05:00,
2013-05-15 14:30:00,62.6,44.7,29.88,WSW,248,2.5,2.5,52,0.00,,,0.00,WUHU216HW,2013-05-15 21:30:00,
2013-05-15 14:35:00,62.6,44.7,29.88,WSW,248,2.5,2.5,52,0.00,,,0.00,WUHU216HW,2013-05-15 21:35:00,
2013-05-15 15:00:00,63.0,45.0,29.88,SE,135,4.7,4.7,52,0.00,,,0.00,WUHU216HW,2013-05-15 22:00:00,
2013-05-15 15:05:00,63.0,45.0,29.88,SE,135,4.7,4.7,52,0.00,,,0.00,WUHU216HW,2013-05-15 22:05:00,
2013-05-15 15:30:00,60.1,45.3,29.88,SW,225,2.5,2.5,58,0.00,,,0.00,WUHU216HW,2013-05-15 22:30:00,
2013-05-15 15:35:00,60.1,45.3,29.88,SW,225,2.5,2.5,58,0.00,,,0.00,WUHU216HW,2013-05-15 22:35:00,
2013-05-15 16:00:00,58.5,45.9,29.89,South,180,2.5,2.5,63,0.00,,,0.00,WUHU216HW,2013-05-15 23:00:00,
2013-05-15 16:05:00,58.5,45.9,29.89,South,180,2.5,2.5,63,0.00,,,0.00,WUHU216HW,2013-05-15 23:05:00,
2013-05-15 16:30:00,56.0,45.5,29.90,West,270,0.7,0.7,68,0.00,,,0.00,WUHU216HW,2013-05-15 23:30:00,
2013-05-15 16:35:00,56.0,45.5,29.90,West,270,0.7,0.7,68,0.00,,,0.00,WUHU216HW,2013-05-15 23:35:00,
2013-05-15 17:00:00,54.5,48.5,29.90,East,90,0.7,0.7,80,0.01,,,0.00,WUHU216HW,2013-05-16 00:00:00,
2013-05-15 17:05:00,54.5,48.5,29.90,East,90,0.7,0.7,80,0.01,,,0.00,WUHU216HW,2013-05-16 00:05:00,
2013-05-15 17:30:00,54.5,49.1,29.89,ESE,113,0.9,0.9,82,0.01,,,0.01,WUHU216HW,2013-05-16 00:30:00,
2013-05-15 17:35:00,54.5,49.1,29.89,ESE,113,0.9,0.9,82,0.01,,,0.01,WUHU216HW,2013-05-16 00:35:00,
2013-05-15 18:00:00,54.0,48.6,29.89,SSE,158,0.0,0.0,82,0.01,,,0.01,WUHU216HW,2013-05-16 01:00:00,
2013-05-15 18:05:00,54.0,48.6,29.89,SSE,158,0.0,0.0,82,0.01,,,0.01,WUHU216HW,2013-05-16 01:05:00,
2013-05-15 18:30:00,53.6,48.6,29.88,West,270,0.0,0.0,83,0.02,,,0.02,WUHU216HW,2013-05-16 01:30:00,
2013-05-15 18:35:00,53.6,48.6,29.88,West,270,0.0,0.0,83,0.02,,,0.02,WUHU216HW,2013-05-16 01:35:00,
2013-05-15 19:00:00,53.6,48.6,29.88,SW,225,0.2,0.2,83,0.02,,,0.03,WUHU216HW,2013-05-16 02:00:00,
2013-05-15 19:05:00,53.6,48.6,29.88,SW,225,0.2,0.2,83,0.02,,,0.03,WUHU216HW,2013-05-16 02:05:00,
2013-05-15 19:30:00,52.9,48.8,29.87,NNE,23,0.0,0.0,86,0.01,,,0.04,WUHU216HW,2013-05-16 02:30:00,
2013-05-15 19:35:00,52.9,48.8,29.87,NNE,23,0.0,0.0,86,0.01,,,0.04,WUHU216HW,2013-05-16 02:35:00,
2013-05-15 20:00:00,52.6,48.4,29.87,NNE,23,0.0,0.0,86,0.01,,,0.04,WUHU216HW,2013-05-16 03:00:00,
2013-05-15 20:05:00,52.6,48.4,29.87,NNE,23,0.0,0.0,86,0.01,,,0.04,WUHU216HW,2013-05-16 03:05:00,
2013-05-15 20:30:00,52.0,48.5,29.86,NNE,23,0.0,0.0,88,0.01,,,0.05,WUHU216HW,2013-05-16 03:30:00,
2013-05-15 20:35:00,52.0,48.5,29.86,NNE,23,0.0,0.0,88,0.01,,,0.05,WUHU216HW,2013-05-16 03:35:00,
2013-05-15 21:00:00,51.5,48.3,29.87,NNE,23,0.0,0.0,89,0.01,,,0.05,WUHU216HW,2013-05-16 04:00:00,
2013-05-15 21:01:00,51.5,48.3,29.87,NNE,23,0.0,0.0,89,0.01,,,0.05,WUHU216HW,2013-05-16 04:01:00,
2013-05-15 21:06:00,51.5,48.3,29.87,NNE,23,0.0,0.0,89,0.01,,,0.05,WUHU216HW,2013-05-16 04:06:00,
2013-05-15 21:30:00,51.1,48.0,29.87,NNE,23,0.0,0.0,89,0.00,,,0.06,WUHU216HW,2013-05-16 04:30:00,
2013-05-15 21:35:00,51.1,48.0,29.87,NNE,23,0.0,0.0,89,0.00,,,0.06,WUHU216HW,2013-05-16 04:35:00,
2013-05-15 22:00:00,51.1,48.0,29.87,NNE,23,0.0,0.0,89,0.00,,,0.06,WUHU216HW,2013-05-16 05:00:00,
2013-05-15 22:05:00,51.1,48.0,29.87,NNE,23,0.0,0.0,89,0.00,,,0.06,WUHU216HW,2013-05-16 05:05:00,
2013-05-15 22:30:00,50.9,48.1,29.87,NNE,23,0.0,0.0,90,0.00,,,0.06,WUHU216HW,2013-05-16 05:30:00,
2013-05-15 22:35:00,50.9,48.1,29.87,NNE,23,0.0,0.0,90,0.00,,,0.06,WUHU216HW,2013-05-16 05:35:00,
2013-05-15 23:00:00,51.1,48.5,29.87,NNE,23,0.0,0.0,91,0.00,,,0.06,WUHU216HW,2013-05-16 06:00:00,
2013-05-15 23:05:00,51.1,48.5,29.87,NNE,23,0.0,0.0,91,0.00,,,0.06,WUHU216HW,2013-05-16 06:05:00,
2013-05-15 23:30:00,51.1,48.5,29.87,East,90,0.0,0.0,91,0.01,,,0.06,WUHU216HW,2013-05-16 06:30:00,
2013-05-15 23:35:00,51.1,48.5,29.87,East,90,0.0,0.0,91,0.01,,,0.06,WUHU216HW,2013-05-16 06:35:00,